sensor_id;sensor_type;location;lat;lon;timestamp;pressure;altitude;pressure_sealevel;temperature
33267;BMP180;19638;49.080;11.896;2023-05-20T00:01:54;96492.00;;;14.40
33267;BMP180;19638;49.080;11.896;2023-05-20T00:05:59;96509.00;;;14.30
33267;BMP180;19638;49.080;11.896;2023-05-20T00:10:03;96504.00;;;14.30
33267;BMP180;19638;49.080;11.896;2023-05-20T00:14:08;96502.00;;;14.20
33267;BMP180;19638;49.080;11.896;2023-05-20T00:18:13;96499.00;;;14.20
33267;BMP180;19638;49.080;11.896;2023-05-20T00:22:17;96496.00;;;14.10
33267;BMP180;19638;49.080;11.896;2023-05-20T00:26:23;96488.00;;;14.00
33267;BMP180;19638;49.080;11.896;2023-05-20T00:30:27;96478.00;;;14.00
33267;BMP180;19638;49.080;11.896;2023-05-20T00:34:32;96466.00;;;13.90
33267;BMP180;19638;49.080;11.896;2023-05-20T00:38:35;96462.00;;;13.80
33267;BMP180;19638;49.080;11.896;2023-05-20T00:42:38;96465.00;;;13.80
33267;BMP180;19638;49.080;11.896;2023-05-20T00:46:45;96458.00;;;13.80
33267;BMP180;19638;49.080;11.896;2023-05-20T00:50:51;96455.00;;;13.70
33267;BMP180;19638;49.080;11.896;2023-05-20T00:55:05;96459.00;;;13.70
33267;BMP180;19638;49.080;11.896;2023-05-20T00:59:15;96454.00;;;13.60
33267;BMP180;19638;49.080;11.896;2023-05-20T01:03:18;96466.00;;;13.60
33267;BMP180;19638;49.080;11.896;2023-05-20T01:07:23;96467.00;;;13.50
33267;BMP180;19638;49.080;11.896;2023-05-20T01:11:35;96463.00;;;13.50
33267;BMP180;19638;49.080;11.896;2023-05-20T01:15:41;96462.00;;;13.40
33267;BMP180;19638;49.080;11.896;2023-05-20T01:19:48;96449.00;;;13.40
33267;BMP180;19638;49.080;11.896;2023-05-20T01:23:52;96445.00;;;13.40
33267;BMP180;19638;49.080;11.896;2023-05-20T01:27:56;96442.00;;;13.40
33267;BMP180;19638;49.080;11.896;2023-05-20T01:32:00;96444.00;;;13.40
33267;BMP180;19638;49.080;11.896;2023-05-20T01:36:05;96437.00;;;13.50
33267;BMP180;19638;49.080;11.896;2023-05-20T01:40:12;96443.00;;;13.50
33267;BMP180;19638;49.080;11.896;2023-05-20T01:44:16;96436.00;;;13.50
33267;BMP180;19638;49.080;11.896;2023-05-20T01:48:20;96430.00;;;13.50
33267;BMP180;19638;49.080;11.896;2023-05-20T01:52:23;96430.00;;;13.50
33267;BMP180;19638;49.080;11.896;2023-05-20T01:56:27;96434.00;;;13.50
33267;BMP180;19638;49.080;11.896;2023-05-20T02:00:34;96427.00;;;13.50
33267;BMP180;19638;49.080;11.896;2023-05-20T02:04:37;96429.00;;;13.50
33267;BMP180;19638;49.080;11.896;2023-05-20T02:08:48;96427.00;;;13.40
33267;BMP180;19638;49.080;11.896;2023-05-20T02:12:52;96425.00;;;13.40
33267;BMP180;19638;49.080;11.896;2023-05-20T02:17:00;96429.00;;;13.30
33267;BMP180;19638;49.080;11.896;2023-05-20T02:21:06;96427.00;;;13.30
33267;BMP180;19638;49.080;11.896;2023-05-20T02:25:09;96411.00;;;13.20
33267;BMP180;19638;49.080;11.896;2023-05-20T02:29:16;96420.00;;;13.20
33267;BMP180;19638;49.080;11.896;2023-05-20T02:33:20;96418.00;;;13.10
33267;BMP180;19638;49.080;11.896;2023-05-20T02:37:24;96414.00;;;13.00
33267;BMP180;19638;49.080;11.896;2023-05-20T02:41:30;96416.00;;;13.00
33267;BMP180;19638;49.080;11.896;2023-05-20T02:45:38;96416.00;;;13.00
33267;BMP180;19638;49.080;11.896;2023-05-20T02:49:43;96426.00;;;12.90
33267;BMP180;19638;49.080;11.896;2023-05-20T02:53:46;96424.00;;;12.90
33267;BMP180;19638;49.080;11.896;2023-05-20T02:57:51;96423.00;;;12.90
33267;BMP180;19638;49.080;11.896;2023-05-20T03:01:56;96413.00;;;12.80
33267;BMP180;19638;49.080;11.896;2023-05-20T03:06:01;96415.00;;;12.80
33267;BMP180;19638;49.080;11.896;2023-05-20T03:10:05;96409.00;;;12.80
33267;BMP180;19638;49.080;11.896;2023-05-20T03:14:08;96418.00;;;12.70
33267;BMP180;19638;49.080;11.896;2023-05-20T03:18:15;96408.00;;;12.80
33267;BMP180;19638;49.080;11.896;2023-05-20T03:22:18;96412.00;;;12.80
33267;BMP180;19638;49.080;11.896;2023-05-20T03:26:24;96416.00;;;12.80
33267;BMP180;19638;49.080;11.896;2023-05-20T03:30:30;96426.00;;;12.80
33267;BMP180;19638;49.080;11.896;2023-05-20T03:34:36;96420.00;;;12.80
33267;BMP180;19638;49.080;11.896;2023-05-20T03:38:40;96418.00;;;12.80
33267;BMP180;19638;49.080;11.896;2023-05-20T03:42:46;96414.00;;;12.80
33267;BMP180;19638;49.080;11.896;2023-05-20T03:46:50;96414.00;;;12.80
33267;BMP180;19638;49.080;11.896;2023-05-20T03:50:55;96417.00;;;12.80
33267;BMP180;19638;49.080;11.896;2023-05-20T03:54:58;96416.00;;;12.90
33267;BMP180;19638;49.080;11.896;2023-05-20T03:59:03;96419.00;;;12.90
33267;BMP180;19638;49.080;11.896;2023-05-20T04:03:06;96417.00;;;12.90
33267;BMP180;19638;49.080;11.896;2023-05-20T04:07:13;96408.00;;;13.00
33267;BMP180;19638;49.080;11.896;2023-05-20T04:11:16;96408.00;;;13.10
33267;BMP180;19638;49.080;11.896;2023-05-20T04:15:22;96414.00;;;13.20
33267;BMP180;19638;49.080;11.896;2023-05-20T04:19:25;96412.00;;;13.20
33267;BMP180;19638;49.080;11.896;2023-05-20T04:23:31;96412.00;;;13.20
33267;BMP180;19638;49.080;11.896;2023-05-20T04:27:38;96416.00;;;13.40
33267;BMP180;19638;49.080;11.896;2023-05-20T04:31:41;96407.00;;;13.50
33267;BMP180;19638;49.080;11.896;2023-05-20T04:35:46;96411.00;;;13.70
33267;BMP180;19638;49.080;11.896;2023-05-20T04:39:50;96409.00;;;13.90
33267;BMP180;19638;49.080;11.896;2023-05-20T04:43:54;96409.00;;;14.10
33267;BMP180;19638;49.080;11.896;2023-05-20T04:48:00;96411.00;;;14.20
33267;BMP180;19638;49.080;11.896;2023-05-20T04:52:06;96411.00;;;14.30
33267;BMP180;19638;49.080;11.896;2023-05-20T04:56:12;96405.00;;;14.50
33267;BMP180;19638;49.080;11.896;2023-05-20T05:00:17;96421.00;;;14.70
33267;BMP180;19638;49.080;11.896;2023-05-20T05:04:24;96415.00;;;14.80
33267;BMP180;19638;49.080;11.896;2023-05-20T05:08:28;96416.00;;;15.00
33267;BMP180;19638;49.080;11.896;2023-05-20T05:12:39;96411.00;;;15.20
33267;BMP180;19638;49.080;11.896;2023-05-20T05:16:42;96413.00;;;15.20
33267;BMP180;19638;49.080;11.896;2023-05-20T05:20:49;96408.00;;;15.30
33267;BMP180;19638;49.080;11.896;2023-05-20T05:25:02;96414.00;;;15.50
33267;BMP180;19638;49.080;11.896;2023-05-20T05:29:07;96415.00;;;15.80
33267;BMP180;19638;49.080;11.896;2023-05-20T05:33:16;96409.00;;;16.00
33267;BMP180;19638;49.080;11.896;2023-05-20T05:37:22;96406.00;;;16.10
33267;BMP180;19638;49.080;11.896;2023-05-20T05:41:25;96400.00;;;16.20
33267;BMP180;19638;49.080;11.896;2023-05-20T05:45:31;96405.00;;;16.10
33267;BMP180;19638;49.080;11.896;2023-05-20T05:49:34;96406.00;;;16.30
33267;BMP180;19638;49.080;11.896;2023-05-20T05:53:39;96392.00;;;16.40
33267;BMP180;19638;49.080;11.896;2023-05-20T05:57:42;96391.00;;;16.40
33267;BMP180;19638;49.080;11.896;2023-05-20T06:01:48;96389.00;;;16.40
33267;BMP180;19638;49.080;11.896;2023-05-20T06:05:54;96392.00;;;16.50
33267;BMP180;19638;49.080;11.896;2023-05-20T06:10:00;96389.00;;;16.60
33267;BMP180;19638;49.080;11.896;2023-05-20T06:14:04;96397.00;;;16.80
33267;BMP180;19638;49.080;11.896;2023-05-20T06:18:12;96395.00;;;16.90
33267;BMP180;19638;49.080;11.896;2023-05-20T06:22:16;96388.00;;;17.00
33267;BMP180;19638;49.080;11.896;2023-05-20T06:26:19;96388.00;;;17.10
33267;BMP180;19638;49.080;11.896;2023-05-20T06:30:25;96396.00;;;17.40
33267;BMP180;19638;49.080;11.896;2023-05-20T06:34:29;96384.00;;;18.00
33267;BMP180;19638;49.080;11.896;2023-05-20T06:38:35;96384.00;;;18.40
33267;BMP180;19638;49.080;11.896;2023-05-20T06:42:38;96389.00;;;18.70
33267;BMP180;19638;49.080;11.896;2023-05-20T06:46:43;96391.00;;;18.90
33267;BMP180;19638;49.080;11.896;2023-05-20T06:50:48;96393.00;;;19.00
33267;BMP180;19638;49.080;11.896;2023-05-20T06:54:51;96392.00;;;19.20
33267;BMP180;19638;49.080;11.896;2023-05-20T06:58:56;96388.00;;;19.50
33267;BMP180;19638;49.080;11.896;2023-05-20T07:02:59;96382.00;;;19.60
33267;BMP180;19638;49.080;11.896;2023-05-20T07:07:04;96386.00;;;19.80
33267;BMP180;19638;49.080;11.896;2023-05-20T07:11:07;96378.00;;;20.00
33267;BMP180;19638;49.080;11.896;2023-05-20T07:15:11;96385.00;;;19.90
33267;BMP180;19638;49.080;11.896;2023-05-20T07:19:17;96378.00;;;19.90
33267;BMP180;19638;49.080;11.896;2023-05-20T07:23:21;96373.00;;;20.40
33267;BMP180;19638;49.080;11.896;2023-05-20T07:27:30;96371.00;;;20.80
33267;BMP180;19638;49.080;11.896;2023-05-20T07:31:35;96377.00;;;20.90
33267;BMP180;19638;49.080;11.896;2023-05-20T07:35:38;96369.00;;;21.10
33267;BMP180;19638;49.080;11.896;2023-05-20T07:39:42;96362.00;;;21.60
33267;BMP180;19638;49.080;11.896;2023-05-20T07:43:46;96367.00;;;22.00
33267;BMP180;19638;49.080;11.896;2023-05-20T07:47:50;96354.00;;;22.40
33267;BMP180;19638;49.080;11.896;2023-05-20T07:51:59;96360.00;;;23.20
33267;BMP180;19638;49.080;11.896;2023-05-20T07:56:06;96355.00;;;23.40
33267;BMP180;19638;49.080;11.896;2023-05-20T08:00:11;96361.00;;;23.90
33267;BMP180;19638;49.080;11.896;2023-05-20T08:04:16;96362.00;;;23.90
33267;BMP180;19638;49.080;11.896;2023-05-20T08:08:20;96363.00;;;24.00
33267;BMP180;19638;49.080;11.896;2023-05-20T08:12:27;96359.00;;;23.80
33267;BMP180;19638;49.080;11.896;2023-05-20T08:16:31;96357.00;;;24.00
33267;BMP180;19638;49.080;11.896;2023-05-20T08:20:37;96350.00;;;24.40
33267;BMP180;19638;49.080;11.896;2023-05-20T08:24:45;96363.00;;;25.10
33267;BMP180;19638;49.080;11.896;2023-05-20T08:28:49;96361.00;;;25.60
33267;BMP180;19638;49.080;11.896;2023-05-20T08:32:53;96352.00;;;25.50
33267;BMP180;19638;49.080;11.896;2023-05-20T08:36:58;96355.00;;;25.90
33267;BMP180;19638;49.080;11.896;2023-05-20T08:41:04;96359.00;;;26.00
33267;BMP180;19638;49.080;11.896;2023-05-20T08:45:11;96347.00;;;25.60
33267;BMP180;19638;49.080;11.896;2023-05-20T08:49:14;96359.00;;;26.30
33267;BMP180;19638;49.080;11.896;2023-05-20T08:53:18;96366.00;;;26.60
33267;BMP180;19638;49.080;11.896;2023-05-20T08:57:22;96357.00;;;26.50
33267;BMP180;19638;49.080;11.896;2023-05-20T09:01:28;96350.00;;;26.30
33267;BMP180;19638;49.080;11.896;2023-05-20T09:05:39;96356.00;;;26.20
33267;BMP180;19638;49.080;11.896;2023-05-20T09:09:48;96363.00;;;26.50
33267;BMP180;19638;49.080;11.896;2023-05-20T09:13:58;96370.00;;;26.30
33267;BMP180;19638;49.080;11.896;2023-05-20T09:18:06;96357.00;;;26.50
33267;BMP180;19638;49.080;11.896;2023-05-20T09:22:12;96367.00;;;27.40
33267;BMP180;19638;49.080;11.896;2023-05-20T09:26:17;96343.00;;;27.70
33267;BMP180;19638;49.080;11.896;2023-05-20T09:30:22;96345.00;;;28.50
33267;BMP180;19638;49.080;11.896;2023-05-20T09:34:35;96359.00;;;28.40
33267;BMP180;19638;49.080;11.896;2023-05-20T09:38:39;96354.00;;;28.50
33267;BMP180;19638;49.080;11.896;2023-05-20T09:42:49;96354.00;;;28.40
33267;BMP180;19638;49.080;11.896;2023-05-20T09:46:57;96334.00;;;28.30
33267;BMP180;19638;49.080;11.896;2023-05-20T09:51:04;96344.00;;;28.80
33267;BMP180;19638;49.080;11.896;2023-05-20T09:55:11;96345.00;;;28.50
33267;BMP180;19638;49.080;11.896;2023-05-20T09:59:14;96344.00;;;28.30
33267;BMP180;19638;49.080;11.896;2023-05-20T10:03:21;96338.00;;;28.80
33267;BMP180;19638;49.080;11.896;2023-05-20T10:07:44;96326.00;;;29.30
33267;BMP180;19638;49.080;11.896;2023-05-20T10:12:05;96335.00;;;28.80
33267;BMP180;19638;49.080;11.896;2023-05-20T10:16:19;96333.00;;;28.50
33267;BMP180;19638;49.080;11.896;2023-05-20T10:20:28;96326.00;;;27.80
33267;BMP180;19638;49.080;11.896;2023-05-20T10:24:35;96334.00;;;27.30
33267;BMP180;19638;49.080;11.896;2023-05-20T10:28:41;96329.00;;;26.60
33267;BMP180;19638;49.080;11.896;2023-05-20T10:32:51;96316.00;;;26.80
33267;BMP180;19638;49.080;11.896;2023-05-20T10:36:58;96304.00;;;27.40
33267;BMP180;19638;49.080;11.896;2023-05-20T10:41:09;96302.00;;;27.30
33267;BMP180;19638;49.080;11.896;2023-05-20T10:45:26;96309.00;;;27.00
33267;BMP180;19638;49.080;11.896;2023-05-20T10:49:33;96304.00;;;27.20
33267;BMP180;19638;49.080;11.896;2023-05-20T10:53:38;96304.00;;;27.30
33267;BMP180;19638;49.080;11.896;2023-05-20T10:57:44;96297.00;;;27.30
33267;BMP180;19638;49.080;11.896;2023-05-20T11:01:53;96297.00;;;28.20
33267;BMP180;19638;49.080;11.896;2023-05-20T11:06:00;96297.00;;;28.30
33267;BMP180;19638;49.080;11.896;2023-05-20T11:10:07;96288.00;;;27.60
33267;BMP180;19638;49.080;11.896;2023-05-20T11:14:14;96289.00;;;27.70
33267;BMP180;19638;49.080;11.896;2023-05-20T11:18:21;96284.00;;;27.80
33267;BMP180;19638;49.080;11.896;2023-05-20T11:22:25;96280.00;;;28.20
33267;BMP180;19638;49.080;11.896;2023-05-20T11:26:28;96280.00;;;29.40
33267;BMP180;19638;49.080;11.896;2023-05-20T11:30:36;96288.00;;;30.30
33267;BMP180;19638;49.080;11.896;2023-05-20T11:34:39;96279.00;;;30.50
33267;BMP180;19638;49.080;11.896;2023-05-20T11:38:47;96279.00;;;30.10
33267;BMP180;19638;49.080;11.896;2023-05-20T11:42:52;96280.00;;;29.80
33267;BMP180;19638;49.080;11.896;2023-05-20T11:47:01;96275.00;;;29.90
33267;BMP180;19638;49.080;11.896;2023-05-20T11:51:07;96267.00;;;30.10
33267;BMP180;19638;49.080;11.896;2023-05-20T11:55:15;96271.00;;;29.60
33267;BMP180;19638;49.080;11.896;2023-05-20T11:59:19;96284.00;;;29.30
33267;BMP180;19638;49.080;11.896;2023-05-20T12:03:34;96288.00;;;28.80
33267;BMP180;19638;49.080;11.896;2023-05-20T12:07:38;96278.00;;;28.20
33267;BMP180;19638;49.080;11.896;2023-05-20T12:11:44;96276.00;;;28.10
33267;BMP180;19638;49.080;11.896;2023-05-20T12:15:47;96268.00;;;27.70
33267;BMP180;19638;49.080;11.896;2023-05-20T12:19:52;96280.00;;;27.70
33267;BMP180;19638;49.080;11.896;2023-05-20T12:23:57;96272.00;;;27.80
33267;BMP180;19638;49.080;11.896;2023-05-20T12:28:01;96254.00;;;28.40
33267;BMP180;19638;49.080;11.896;2023-05-20T12:32:05;96256.00;;;28.60
33267;BMP180;19638;49.080;11.896;2023-05-20T12:36:10;96261.00;;;28.80
33267;BMP180;19638;49.080;11.896;2023-05-20T12:40:14;96260.00;;;28.60
33267;BMP180;19638;49.080;11.896;2023-05-20T12:44:17;96259.00;;;28.30
33267;BMP180;19638;49.080;11.896;2023-05-20T12:48:22;96260.00;;;28.10
33267;BMP180;19638;49.080;11.896;2023-05-20T12:52:28;96258.00;;;28.00
33267;BMP180;19638;49.080;11.896;2023-05-20T12:56:34;96257.00;;;28.00
33267;BMP180;19638;49.080;11.896;2023-05-20T13:00:38;96250.00;;;28.10
33267;BMP180;19638;49.080;11.896;2023-05-20T13:04:44;96250.00;;;28.40
33267;BMP180;19638;49.080;11.896;2023-05-20T13:08:52;96248.00;;;28.30
33267;BMP180;19638;49.080;11.896;2023-05-20T13:12:55;96252.00;;;28.40
33267;BMP180;19638;49.080;11.896;2023-05-20T13:17:04;96250.00;;;28.60
33267;BMP180;19638;49.080;11.896;2023-05-20T13:21:07;96248.00;;;29.00
33267;BMP180;19638;49.080;11.896;2023-05-20T13:25:12;96249.00;;;29.20
33267;BMP180;19638;49.080;11.896;2023-05-20T13:29:18;96247.00;;;29.10
33267;BMP180;19638;49.080;11.896;2023-05-20T13:33:24;96247.00;;;29.00
33267;BMP180;19638;49.080;11.896;2023-05-20T13:37:27;96239.00;;;29.00
33267;BMP180;19638;49.080;11.896;2023-05-20T13:41:36;96231.00;;;28.90
33267;BMP180;19638;49.080;11.896;2023-05-20T13:45:39;96231.00;;;28.90
33267;BMP180;19638;49.080;11.896;2023-05-20T13:49:42;96227.00;;;28.80
33267;BMP180;19638;49.080;11.896;2023-05-20T13:53:46;96222.00;;;29.10
33267;BMP180;19638;49.080;11.896;2023-05-20T13:57:51;96227.00;;;30.30
33267;BMP180;19638;49.080;11.896;2023-05-20T14:01:55;96215.00;;;31.30
33267;BMP180;19638;49.080;11.896;2023-05-20T14:05:59;96202.00;;;32.00
33267;BMP180;19638;49.080;11.896;2023-05-20T14:10:06;96210.00;;;31.60
33267;BMP180;19638;49.080;11.896;2023-05-20T14:14:11;96201.00;;;31.70
33267;BMP180;19638;49.080;11.896;2023-05-20T14:18:20;96199.00;;;31.50
33267;BMP180;19638;49.080;11.896;2023-05-20T14:22:23;96196.00;;;31.50
33267;BMP180;19638;49.080;11.896;2023-05-20T14:26:26;96197.00;;;31.40
33267;BMP180;19638;49.080;11.896;2023-05-20T14:30:32;96197.00;;;31.60
33267;BMP180;19638;49.080;11.896;2023-05-20T14:34:38;96194.00;;;31.60
33267;BMP180;19638;49.080;11.896;2023-05-20T14:38:48;96187.00;;;31.50
33267;BMP180;19638;49.080;11.896;2023-05-20T14:42:52;96182.00;;;31.40
33267;BMP180;19638;49.080;11.896;2023-05-20T14:46:59;96171.00;;;31.50
33267;BMP180;19638;49.080;11.896;2023-05-20T14:51:03;96174.00;;;31.80
33267;BMP180;19638;49.080;11.896;2023-05-20T14:55:06;96177.00;;;31.90
33267;BMP180;19638;49.080;11.896;2023-05-20T14:59:10;96171.00;;;32.10
33267;BMP180;19638;49.080;11.896;2023-05-20T15:03:14;96169.00;;;32.00
33267;BMP180;19638;49.080;11.896;2023-05-20T15:07:20;96174.00;;;31.50
33267;BMP180;19638;49.080;11.896;2023-05-20T15:11:26;96172.00;;;31.40
33267;BMP180;19638;49.080;11.896;2023-05-20T15:15:32;96161.00;;;31.70
33267;BMP180;19638;49.080;11.896;2023-05-20T15:19:38;96162.00;;;31.90
33267;BMP180;19638;49.080;11.896;2023-05-20T15:23:44;96154.00;;;32.20
33267;BMP180;19638;49.080;11.896;2023-05-20T15:27:49;96154.00;;;32.30
33267;BMP180;19638;49.080;11.896;2023-05-20T15:31:54;96152.00;;;32.30
33267;BMP180;19638;49.080;11.896;2023-05-20T15:35:58;96160.00;;;31.80
33267;BMP180;19638;49.080;11.896;2023-05-20T15:40:04;96153.00;;;31.30
33267;BMP180;19638;49.080;11.896;2023-05-20T15:44:08;96147.00;;;30.80
33267;BMP180;19638;49.080;11.896;2023-05-20T15:48:15;96145.00;;;30.20
33267;BMP180;19638;49.080;11.896;2023-05-20T15:52:19;96146.00;;;29.80
33267;BMP180;19638;49.080;11.896;2023-05-20T15:56:28;96134.00;;;29.40
33267;BMP180;19638;49.080;11.896;2023-05-20T16:00:31;96146.00;;;29.20
33267;BMP180;19638;49.080;11.896;2023-05-20T16:04:38;96148.00;;;29.30
33267;BMP180;19638;49.080;11.896;2023-05-20T16:08:46;96140.00;;;29.20
33267;BMP180;19638;49.080;11.896;2023-05-20T16:12:52;96151.00;;;29.10
33267;BMP180;19638;49.080;11.896;2023-05-20T16:16:56;96150.00;;;29.10
33267;BMP180;19638;49.080;11.896;2023-05-20T16:21:03;96145.00;;;29.00
33267;BMP180;19638;49.080;11.896;2023-05-20T16:25:10;96142.00;;;29.10
33267;BMP180;19638;49.080;11.896;2023-05-20T16:29:13;96140.00;;;28.90
33267;BMP180;19638;49.080;11.896;2023-05-20T16:33:17;96144.00;;;28.80
33267;BMP180;19638;49.080;11.896;2023-05-20T16:37:23;96137.00;;;28.60
33267;BMP180;19638;49.080;11.896;2023-05-20T16:41:29;96144.00;;;28.40
33267;BMP180;19638;49.080;11.896;2023-05-20T16:45:34;96148.00;;;28.30
33267;BMP180;19638;49.080;11.896;2023-05-20T16:49:39;96151.00;;;28.30
33267;BMP180;19638;49.080;11.896;2023-05-20T16:53:42;96153.00;;;28.40
33267;BMP180;19638;49.080;11.896;2023-05-20T16:57:47;96158.00;;;28.30
33267;BMP180;19638;49.080;11.896;2023-05-20T17:01:51;96163.00;;;28.10
33267;BMP180;19638;49.080;11.896;2023-05-20T17:05:54;96168.00;;;28.20
33267;BMP180;19638;49.080;11.896;2023-05-20T17:10:01;96169.00;;;28.40
33267;BMP180;19638;49.080;11.896;2023-05-20T17:14:09;96171.00;;;28.50
33267;BMP180;19638;49.080;11.896;2023-05-20T17:18:14;96171.00;;;28.40
33267;BMP180;19638;49.080;11.896;2023-05-20T17:22:17;96181.00;;;28.10
33267;BMP180;19638;49.080;11.896;2023-05-20T17:26:20;96174.00;;;27.80
33267;BMP180;19638;49.080;11.896;2023-05-20T17:30:28;96173.00;;;27.50
33267;BMP180;19638;49.080;11.896;2023-05-20T17:34:33;96171.00;;;27.10
33267;BMP180;19638;49.080;11.896;2023-05-20T17:38:39;96178.00;;;26.80
33267;BMP180;19638;49.080;11.896;2023-05-20T17:42:47;96170.00;;;26.40
33267;BMP180;19638;49.080;11.896;2023-05-20T17:46:55;96178.00;;;26.10
33267;BMP180;19638;49.080;11.896;2023-05-20T17:50:58;96180.00;;;25.80
33267;BMP180;19638;49.080;11.896;2023-05-20T17:55:02;96179.00;;;25.50
33267;BMP180;19638;49.080;11.896;2023-05-20T17:59:07;96188.00;;;25.20
33267;BMP180;19638;49.080;11.896;2023-05-20T18:03:15;96185.00;;;24.90
33267;BMP180;19638;49.080;11.896;2023-05-20T18:07:23;96183.00;;;24.60
33267;BMP180;19638;49.080;11.896;2023-05-20T18:11:27;96185.00;;;24.40
33267;BMP180;19638;49.080;11.896;2023-05-20T18:15:34;96187.00;;;24.20
33267;BMP180;19638;49.080;11.896;2023-05-20T18:19:45;96186.00;;;24.00
33267;BMP180;19638;49.080;11.896;2023-05-20T18:23:48;96188.00;;;23.80
33267;BMP180;19638;49.080;11.896;2023-05-20T18:27:53;96191.00;;;23.60
33267;BMP180;19638;49.080;11.896;2023-05-20T18:31:58;96188.00;;;23.50
33267;BMP180;19638;49.080;11.896;2023-05-20T18:36:03;96181.00;;;23.30
33267;BMP180;19638;49.080;11.896;2023-05-20T18:40:11;96184.00;;;23.20
33267;BMP180;19638;49.080;11.896;2023-05-20T18:44:15;96187.00;;;23.00
33267;BMP180;19638;49.080;11.896;2023-05-20T18:48:18;96188.00;;;22.90
33267;BMP180;19638;49.080;11.896;2023-05-20T18:52:29;96187.00;;;22.70
33267;BMP180;19638;49.080;11.896;2023-05-20T18:56:35;96202.00;;;22.60
33267;BMP180;19638;49.080;11.896;2023-05-20T19:00:41;96199.00;;;22.40
33267;BMP180;19638;49.080;11.896;2023-05-20T19:04:45;96205.00;;;22.20
33267;BMP180;19638;49.080;11.896;2023-05-20T19:08:52;96205.00;;;22.10
33267;BMP180;19638;49.080;11.896;2023-05-20T19:12:55;96208.00;;;22.00
33267;BMP180;19638;49.080;11.896;2023-05-20T19:16:58;96204.00;;;21.80
33267;BMP180;19638;49.080;11.896;2023-05-20T19:21:02;96211.00;;;21.60
33267;BMP180;19638;49.080;11.896;2023-05-20T19:25:12;96209.00;;;21.40
33267;BMP180;19638;49.080;11.896;2023-05-20T19:29:16;96214.00;;;21.10
33267;BMP180;19638;49.080;11.896;2023-05-20T19:33:19;96210.00;;;20.90
33267;BMP180;19638;49.080;11.896;2023-05-20T19:37:26;96217.00;;;20.80
33267;BMP180;19638;49.080;11.896;2023-05-20T19:41:30;96219.00;;;20.60
33267;BMP180;19638;49.080;11.896;2023-05-20T19:45:33;96233.00;;;20.50
33267;BMP180;19638;49.080;11.896;2023-05-20T19:49:41;96220.00;;;20.40
33267;BMP180;19638;49.080;11.896;2023-05-20T19:53:45;96232.00;;;20.40
33267;BMP180;19638;49.080;11.896;2023-05-20T19:57:49;96237.00;;;20.20
33267;BMP180;19638;49.080;11.896;2023-05-20T20:01:54;96234.00;;;20.10
33267;BMP180;19638;49.080;11.896;2023-05-20T20:05:57;96221.00;;;19.90
33267;BMP180;19638;49.080;11.896;2023-05-20T20:10:00;96235.00;;;19.70
33267;BMP180;19638;49.080;11.896;2023-05-20T20:14:05;96227.00;;;19.60
33267;BMP180;19638;49.080;11.896;2023-05-20T20:18:08;96233.00;;;19.50
33267;BMP180;19638;49.080;11.896;2023-05-20T20:22:15;96219.00;;;19.50
33267;BMP180;19638;49.080;11.896;2023-05-20T20:26:21;96223.00;;;19.40
33267;BMP180;19638;49.080;11.896;2023-05-20T20:30:29;96235.00;;;19.40
33267;BMP180;19638;49.080;11.896;2023-05-20T20:34:33;96239.00;;;19.30
33267;BMP180;19638;49.080;11.896;2023-05-20T20:38:36;96237.00;;;19.30
33267;BMP180;19638;49.080;11.896;2023-05-20T20:42:39;96228.00;;;19.30
33267;BMP180;19638;49.080;11.896;2023-05-20T20:46:49;96223.00;;;19.30
33267;BMP180;19638;49.080;11.896;2023-05-20T20:50:59;96232.00;;;19.20
33267;BMP180;19638;49.080;11.896;2023-05-20T20:55:06;96230.00;;;19.20
33267;BMP180;19638;49.080;11.896;2023-05-20T20:59:12;96219.00;;;19.20
33267;BMP180;19638;49.080;11.896;2023-05-20T21:03:19;96222.00;;;19.20
33267;BMP180;19638;49.080;11.896;2023-05-20T21:07:24;96220.00;;;19.20
33267;BMP180;19638;49.080;11.896;2023-05-20T21:11:28;96228.00;;;19.20
33267;BMP180;19638;49.080;11.896;2023-05-20T21:15:34;96223.00;;;19.20
33267;BMP180;19638;49.080;11.896;2023-05-20T21:19:41;96216.00;;;19.10
33267;BMP180;19638;49.080;11.896;2023-05-20T21:23:44;96209.00;;;19.00
33267;BMP180;19638;49.080;11.896;2023-05-20T21:27:47;96213.00;;;19.00
33267;BMP180;19638;49.080;11.896;2023-05-20T21:31:51;96211.00;;;18.90
33267;BMP180;19638;49.080;11.896;2023-05-20T21:35:57;96211.00;;;18.90
33267;BMP180;19638;49.080;11.896;2023-05-20T21:40:00;96207.00;;;18.90
33267;BMP180;19638;49.080;11.896;2023-05-20T21:44:06;96207.00;;;19.00
33267;BMP180;19638;49.080;11.896;2023-05-20T21:48:09;96213.00;;;19.00
33267;BMP180;19638;49.080;11.896;2023-05-20T21:52:21;96207.00;;;18.90
33267;BMP180;19638;49.080;11.896;2023-05-20T21:56:24;96216.00;;;18.80
33267;BMP180;19638;49.080;11.896;2023-05-20T22:00:28;96215.00;;;18.80
33267;BMP180;19638;49.080;11.896;2023-05-20T22:04:33;96207.00;;;18.90
33267;BMP180;19638;49.080;11.896;2023-05-20T22:08:45;96207.00;;;18.90
33267;BMP180;19638;49.080;11.896;2023-05-20T22:12:53;96207.00;;;18.90
33267;BMP180;19638;49.080;11.896;2023-05-20T22:16:58;96205.00;;;18.90
33267;BMP180;19638;49.080;11.896;2023-05-20T22:21:04;96200.00;;;18.90
33267;BMP180;19638;49.080;11.896;2023-05-20T22:25:10;96202.00;;;18.90
33267;BMP180;19638;49.080;11.896;2023-05-20T22:29:14;96204.00;;;18.90
33267;BMP180;19638;49.080;11.896;2023-05-20T22:33:19;96190.00;;;18.90
33267;BMP180;19638;49.080;11.896;2023-05-20T22:37:26;96196.00;;;18.90
33267;BMP180;19638;49.080;11.896;2023-05-20T22:41:31;96194.00;;;19.00
33267;BMP180;19638;49.080;11.896;2023-05-20T22:45:38;96188.00;;;19.00
33267;BMP180;19638;49.080;11.896;2023-05-20T22:49:43;96189.00;;;19.00
33267;BMP180;19638;49.080;11.896;2023-05-20T22:53:49;96188.00;;;19.00
33267;BMP180;19638;49.080;11.896;2023-05-20T22:57:54;96178.00;;;18.90
33267;BMP180;19638;49.080;11.896;2023-05-20T23:01:57;96178.00;;;18.90
33267;BMP180;19638;49.080;11.896;2023-05-20T23:06:02;96164.00;;;18.90
33267;BMP180;19638;49.080;11.896;2023-05-20T23:10:06;96162.00;;;18.90
33267;BMP180;19638;49.080;11.896;2023-05-20T23:14:21;96161.00;;;19.00